createdAt,value
2018-01-01T10:30:32.969Z,59.50
2018-01-01T10:33:04.096Z,59.40
2018-01-01T10:35:34.744Z,59.20
2018-01-01T10:38:05.501Z,59.70
2018-01-01T10:40:35.800Z,59.60
2018-01-01T10:43:06.617Z,59.90
2018-01-01T10:45:37.029Z,59.90
2018-01-01T10:48:08.889Z,60.10
2018-01-01T10:50:40.767Z,60.20
2018-01-01T10:53:10.672Z,60.20
2018-01-01T10:55:40.912Z,60.10
2018-01-01T10:58:11.863Z,60.30
2018-01-01T11:00:41.937Z,60.20
2018-01-01T11:03:12.134Z,60.10
2018-01-01T11:05:42.136Z,60.20
2018-01-01T11:08:14.782Z,60.00
2018-01-01T11:10:46.260Z,60.00
2018-01-01T11:13:16.253Z,60.00
2018-01-01T11:15:46.299Z,60.60
2018-01-01T11:18:16.748Z,60.70
2018-01-01T11:20:46.670Z,61.30
2018-01-01T11:23:16.701Z,61.30
2018-01-01T11:25:47.489Z,60.50
2018-01-01T11:28:18.338Z,60.50
2018-01-01T11:30:48.383Z,61.30
2018-01-01T11:33:18.467Z,61.10
2018-01-01T11:35:49.548Z,60.70
2018-01-01T11:38:20.903Z,60.50
2018-01-01T11:40:52.569Z,60.20
2018-01-01T11:43:27.762Z,57.30
2018-01-01T11:45:58.864Z,57.30
2018-01-01T11:48:31.588Z,58.30
2018-01-01T11:51:03.621Z,57.80
2018-01-01T11:53:35.050Z,57.80
2018-01-01T11:56:06.220Z,58.00
2018-01-01T11:58:36.348Z,58.00
2018-01-01T12:01:07.390Z,58.20
2018-01-01T12:03:38.168Z,58.30
2018-01-01T12:06:08.211Z,58.30
2018-01-01T12:08:38.212Z,58.40
2018-01-01T12:11:08.249Z,58.40
2018-01-01T12:13:40.788Z,58.40
2018-01-01T12:16:11.700Z,58.40
2018-01-01T12:18:42.572Z,58.30
2018-01-01T12:21:13.585Z,58.10
2018-01-01T12:23:44.480Z,58.20
2018-01-01T12:26:15.412Z,57.60
2018-01-01T12:28:46.355Z,57.70
2018-01-01T12:31:16.417Z,57.70
2018-01-01T12:33:46.373Z,58.10
2018-01-01T12:36:16.382Z,58.30
2018-01-01T12:38:46.780Z,58.50
2018-01-01T12:41:17.064Z,58.60
2018-01-01T12:43:47.955Z,58.70
2018-01-01T12:46:18.171Z,58.70
2018-01-01T12:48:48.204Z,58.80
2018-01-01T12:51:19.629Z,58.90
2018-01-01T12:53:49.750Z,58.90
2018-01-01T12:56:20.615Z,59.00
2018-01-01T12:58:50.807Z,59.00
2018-01-01T13:01:21.751Z,59.10
2018-01-01T13:03:52.684Z,59.00
2018-01-01T13:06:22.780Z,59.10
2018-01-01T13:08:53.521Z,59.10
2018-01-01T13:11:24.713Z,59.20
2018-01-01T13:13:54.831Z,59.20
2018-01-01T13:20:37.838Z,42.70
2018-01-01T13:23:26.670Z,42.60
2018-01-01T13:29:11.345Z,51.20
2018-01-01T13:31:58.035Z,52.90
2018-01-01T13:42:02.457Z,56.20
2018-01-01T13:47:33.861Z,56.90
2018-01-01T15:38:50.486Z,70.20
2018-01-01T19:33:51.240Z,55.10
2018-01-01T19:36:21.431Z,53.40
2018-01-01T19:40:30.697Z,54.30
2018-01-01T20:29:14.619Z,99.90
2018-01-01T20:37:41.944Z,74.10
2018-01-01T20:40:26.231Z,77.00
2018-01-01T21:02:42.246Z,81.00
2018-01-01T21:05:25.604Z,80.70
2018-01-01T21:10:59.754Z,81.00
2018-01-01T21:13:47.653Z,80.50
2018-01-01T21:16:44.485Z,80.40
2018-01-01T21:22:06.185Z,81.00
2018-01-01T21:24:41.101Z,81.50
2018-01-01T21:27:14.218Z,81.80
2018-01-01T21:29:55.441Z,81.90
2018-01-01T21:32:36.248Z,82.50
2018-01-01T21:35:13.308Z,82.50
2018-01-01T21:37:51.512Z,83.50
2018-01-01T21:40:32.421Z,83.40
2018-01-01T21:43:06.922Z,83.80
2018-01-01T21:45:45.190Z,83.90
2018-01-01T21:48:36.525Z,84.30
2018-01-01T21:51:28.106Z,84.70
2018-01-01T21:54:05.853Z,84.90
2018-01-01T21:59:34.644Z,84.10
2018-01-01T22:04:50.580Z,84.50
2018-01-01T22:10:07.276Z,83.90
2018-01-01T22:12:50.831Z,83.70
2018-01-01T22:18:21.090Z,82.10
2018-01-01T22:20:56.384Z,82.20
2018-01-01T22:23:27.949Z,81.90
2018-01-01T22:26:00.977Z,82.00
2018-01-01T22:28:32.614Z,82.40
2018-01-01T22:31:10.754Z,82.60
2018-01-01T22:33:47.423Z,83.10
2018-01-01T22:36:23.842Z,83.20
2018-01-01T22:39:10.535Z,83.10
2018-01-01T22:59:39.268Z,84.60
2018-01-01T23:02:25.665Z,84.40
2018-01-01T23:04:58.747Z,84.00
2018-01-01T23:07:33.111Z,84.10
2018-01-01T23:10:12.734Z,84.80
2018-01-01T23:12:49.933Z,84.80
2018-01-01T23:15:29.778Z,84.90
2018-01-01T23:18:05.799Z,84.50
2018-01-01T23:20:44.354Z,84.10
2018-01-01T23:23:27.917Z,84.90
2018-01-01T23:29:05.211Z,85.10
2018-01-01T23:34:30.378Z,85.80
2018-01-01T23:37:11.508Z,84.80
2018-01-01T23:42:40.647Z,85.70
2018-01-01T23:45:26.226Z,84.30
2018-01-01T23:48:05.342Z,84.30
2018-01-01T23:50:41.889Z,84.10
2018-01-01T23:53:15.314Z,84.60
2018-01-01T23:55:49.474Z,84.00
2018-01-01T23:58:27.724Z,85.10
